Terminal Aerodrome Forecast
Issued by NWS Lubbock, TX

Home | Current Version | Previous Version | Text Only | Print | Product List | Glossary On
Versions: 1 2 3 4 5 6 7 8 9 10 11 12 13 14 15 16 17
000
FTUS44 KLUB 250811 AAA
TAFLBB
TAF AMD
KLBB 250811Z 2508/2606 13011KT P6SM SCT010 BKN050 OVC110
      TEMPO 2508/2512 P6SM -RA OVC010=

USA.gov is the U.S. government's official web portal to all federal, state and local government web resources and services.